Lander County Airport

About
Name: Lander County Airport
Identifier:  BAM/KBAM
Serves:  Battle Mountain, Nevada
Operator:  Lander County
Public/Private:  Public
Local Time:  18. Aug 11:12 PDT
Description: Battle Mountain Airport, also known as Lander County Airport, is 3 miles southeast of Battle Mountain, Nevada. This general aviation airport is owned by Lander County and operated by the Battle Mountain Airport Authority.
Source: Wikipedia
Location
Battle Mountain
  United States

Runways
Identifier Length (m/ft) Surface
12/30 7,300/7,300 Asphalt
3/21 7,299/7,299 Asphalt
Flights per Day
0 flights
Distance: 216km (134mi)
Punctuality
75% (0 flights per day delayed)
Delay Average: 99 minutes
Current Weather
 28 C (Humidity: 21%)
  6kt (11km/h / 6mph) from 350°
  16km (10 mi.)
 METAR KBAM 181755Z AUTO 35006KT 10SM 28/04 A2998 RMK AO1

Current Flights

Departures
Number Departure To Airline
Arrivals
Number Arrival From Airline

Current Delays

Departures
N/A
Arrivals
N/A

Destinations

Top Destinations
Airport Flights
per week
Seats
per week
  Twin Falls (TWF) 0 - 0 0
  Carson City (CSN) 0 - 0 0
  Salt Lake City (SLC) 0 - 0 0
  Truckee (TKF) 0 - 0 0
  Redmond (RDM) 0 - 0 0
  Elko (EKO) 0 - 0 0

Airlines & Planes

Top Airlines
Airline Flights
per Day
Seats
per Day
Nordwind Airlines 0 -
Top Plane Types
Model Flights Seats
Pilatus PC-12 0.1/day - 0